KWJF

Details ICAO KWJF
Name General Wm J Fox Airfield
Region United States
Timezone America/Los_Angeles (UTC-7.0)
Plans Departing 41
Arriving 19
Stats Elevation 2,351 ft / 717 m (AMSL)
Location 34.741048° -118.218641°
Runways 1
Magnetic Variation 12.085° E
Sunrise 2018-05-21 12:47:11 UTC / 2018-05-21 05:47:11 Local
Sunset 2018-05-22 02:54:39 UTC / 2018-05-21 19:54:39 Local
Advertisement - Login to hide

Runways

ID Width Length Bearing (true) Bearing (mag) Surface Threshold Offset Overrun Length
06 151 ft / 46 m 7,188 ft / 2,191 m 71.98° 59.90° Asphalt 0 ft / 0 m 200 ft / 61 m
24 151 ft / 46 m 7,188 ft / 2,191 m 251.99° 239.91° Asphalt 0 ft / 0 m 200 ft / 61 m

Map

Weather


0- 5 10 15 20 25 30 35+ Temperature / ° C

Clouds and Precipitation
Forecast for 2018-05-22 00:00 UTC. Updated 4 hours ago

Ground ~20,000 ft ~40,000 ft Winds

METAR

KWJF 220256Z 23016KT 10SM CLR 14/08 A2981 RMK AO2 SLP088 T01440083 53007

TAF

TAF KWJF 220007Z 2200/2224 23022G30KT P6SM FEW050 SCT250 FM220200 23014G20KT P6SM SCT250 FM220400 24012KT P6SM SCT250 FM222100 23020G30KT P6SM FEW050 SCT250

Frequencies

Recorded 126.30 MHz ATIS
Unicom 120.30 MHz CTAF
Ground 121.70 MHz GND
Approach 126.10 MHz JOSHUA APP/DEP
Recorded 133.87 MHz AWOS
Unicom 122.95 MHz UNICOM
Tower 120.30 MHz TWR
Warning: Do not use this data for real-world aviation or navigation. No guarantee of current accuracy is given.